Time;durP1;ratioP1;P1;durP2;ratioP2;P2;SDS_P1;SDS_P2;PMS_P1;PMS_P2;Temp;Humidity;BMP_temperature;BMP_pressure;BME280_temperature;BME280_humidity;BME280_pressure;Samples;Min_cycle;Max_cycle;Signal;HPM_P1;HPM_P2
2022/11/15 00:00:42;;;;;;;1999.90;999.90;;;12.10;99.90;;;;;;5015119;28;20056;-82
2022/11/15 00:03:07;;;;;;;1999.90;999.90;;;12.10;99.90;;;;;;5014006;28;20133;-82
2022/11/15 00:05:35;;;;;;;1999.90;999.90;;;12.10;99.90;;;;;;5012410;28;20032;-82
2022/11/15 00:08:01;;;;;;;1999.90;999.90;;;12.10;99.90;;;;;;5011862;28;20113;-82
2022/11/15 00:10:27;;;;;;;1999.90;999.90;;;12.10;99.90;;;;;;5012282;28;20053;-82
2022/11/15 00:12:52;;;;;;;1999.90;999.90;;;12.10;99.90;;;;;;5012223;28;20029;-82
2022/11/15 00:15:18;;;;;;;1999.90;999.90;;;12.20;99.90;;;;;;5012341;28;20033;-82
2022/11/15 00:17:44;;;;;;;1999.90;999.90;;;12.20;99.90;;;;;;5012853;28;20116;-82
2022/11/15 00:20:11;;;;;;;1999.90;999.90;;;12.20;99.90;;;;;;5012083;28;20038;-82
2022/11/15 00:22:37;;;;;;;1999.90;999.90;;;12.20;99.90;;;;;;5011586;28;20029;-82
2022/11/15 00:25:03;;;;;;;1999.90;999.90;;;12.20;99.90;;;;;;5010101;28;20037;-82
2022/11/15 00:27:28;;;;;;;1999.90;999.90;;;12.10;99.90;;;;;;5015740;28;20030;-82
2022/11/15 00:29:54;;;;;;;1999.90;999.90;;;12.10;99.90;;;;;;5012025;28;20040;-82
2022/11/15 00:32:20;;;;;;;1999.90;999.90;;;12.20;99.90;;;;;;5012012;28;20026;-82
2022/11/15 00:34:45;;;;;;;1999.90;999.90;;;12.20;99.90;;;;;;5012137;28;20636;-82
2022/11/15 00:37:11;;;;;;;1999.90;999.90;;;12.20;99.90;;;;;;5012047;28;20444;-82
2022/11/15 00:39:36;;;;;;;1999.90;999.90;;;12.20;99.90;;;;;;5011776;28;20128;-82
2022/11/15 00:42:02;;;;;;;1999.90;999.90;;;12.30;99.90;;;;;;5011962;28;20065;-82
2022/11/15 00:44:28;;;;;;;1999.90;999.90;;;12.30;99.90;;;;;;4994604;28;20362;-82
2022/11/15 00:46:53;;;;;;;1999.90;999.90;;;12.30;99.90;;;;;;5015976;28;20030;-82
2022/11/15 00:49:22;;;;;;;1999.90;999.90;;;12.30;99.90;;;;;;5015476;28;20034;-81
2022/11/15 00:51:47;;;;;;;1999.90;999.90;;;12.30;99.90;;;;;;5015375;28;20049;-82
2022/11/15 00:54:13;;;;;;;1999.90;999.90;;;12.30;99.90;;;;;;5015172;28;20559;-82
2022/11/15 00:56:38;;;;;;;1999.90;999.90;;;12.30;99.90;;;;;;5015776;28;20024;-81
2022/11/15 00:59:04;;;;;;;1999.90;999.90;;;12.30;99.90;;;;;;5015733;28;20444;-82
2022/11/15 01:01:30;;;;;;;1999.90;999.90;;;12.30;99.90;;;;;;5007802;28;20030;-81
2022/11/15 01:03:55;;;;;;;1999.90;999.90;;;12.30;99.90;;;;;;5015476;28;20057;-82
2022/11/15 01:06:21;;;;;;;1999.90;999.90;;;12.30;99.90;;;;;;4997761;28;20033;-82
2022/11/15 01:08:47;;;;;;;1999.90;999.90;;;12.30;99.90;;;;;;4995697;28;20030;-82
2022/11/15 01:11:12;;;;;;;1999.90;999.90;;;12.30;99.90;;;;;;4995836;28;20022;-82
2022/11/15 01:13:39;;;;;;;1999.90;999.90;;;12.30;99.90;;;;;;5013121;28;20033;-82
2022/11/15 01:16:16;;;;;;;1999.90;999.90;;;12.30;99.90;;;;;;5014254;28;20086;-81
2022/11/15 01:18:42;;;;;;;1999.90;999.90;;;12.30;99.90;;;;;;5015109;28;20033;-82
2022/11/15 01:21:14;;;;;;;1999.90;999.90;;;12.40;99.90;;;;;;5015162;28;20036;-82
2022/11/15 01:23:39;;;;;;;1999.90;999.90;;;12.40;99.90;;;;;;5013118;28;20026;-82
2022/11/15 01:26:09;;;;;;;1999.90;999.90;;;12.40;99.90;;;;;;5016630;28;20887;-82
2022/11/15 01:28:36;;;;;;;1999.90;999.90;;;12.40;99.90;;;;;;5013522;28;20099;-81
2022/11/15 01:31:05;;;;;;;1999.90;999.90;;;12.40;99.90;;;;;;5008097;28;20482;-82
2022/11/15 01:33:30;;;;;;;1999.90;999.90;;;12.40;99.90;;;;;;4993707;28;20026;-82
2022/11/15 01:35:56;;;;;;;1999.90;999.90;;;12.40;99.90;;;;;;4997173;28;20412;-82
2022/11/15 01:38:22;;;;;;;1999.90;999.90;;;12.40;99.90;;;;;;5014213;28;20038;-82
2022/11/15 01:40:49;;;;;;;1999.90;999.90;;;12.40;99.90;;;;;;5014802;28;20092;-82
2022/11/15 01:43:48;;;;;;;1999.90;999.90;;;12.40;99.90;;;;;;5014713;28;20551;-82
2022/11/15 01:46:35;;;;;;;1999.90;999.90;;;12.50;99.90;;;;;;4992635;28;20080;-82
2022/11/15 01:49:05;;;;;;;1999.90;999.90;;;12.50;99.90;;;;;;5014422;28;20030;-82
2022/11/15 01:51:32;;;;;;;1999.90;999.90;;;12.50;99.90;;;;;;5014431;28;20073;-82
2022/11/15 01:54:05;;;;;;;1999.90;999.90;;;12.50;99.90;;;;;;5014026;28;20042;-82
2022/11/15 01:56:35;;;;;;;1999.90;999.90;;;12.50;99.90;;;;;;5014354;28;20022;-82
2022/11/15 01:59:04;;;;;;;1999.90;999.90;;;12.50;99.90;;;;;;5014474;28;20041;-81
2022/11/15 02:01:32;;;;;;;1999.90;999.90;;;12.50;99.90;;;;;;5023342;28;20092;-82
2022/11/15 02:04:35;;;;;;;1999.90;999.90;;;12.50;99.90;;;;;;5015437;28;20057;-82
2022/11/15 02:07:05;;;;;;;1999.90;999.90;;;12.50;99.90;;;;;;4973312;28;20034;-81
2022/11/15 02:09:30;;;;;;;1999.90;999.90;;;12.50;99.90;;;;;;4972745;28;20052;-81
2022/11/15 02:11:57;;;;;;;1999.90;999.90;;;12.50;99.90;;;;;;4972712;28;20823;-81
2022/11/15 02:14:25;;;;;;;1999.90;999.90;;;12.40;99.90;;;;;;4973086;28;20041;-82
2022/11/15 02:17:05;;;;;;;1999.90;999.90;;;12.40;99.90;;;;;;4972306;28;20027;-82
2022/11/15 02:19:33;;;;;;;1999.90;999.90;;;12.40;99.90;;;;;;4972924;28;20438;-81
2022/11/15 02:22:14;;;;;;;1999.90;999.90;;;12.40;99.90;;;;;;4972409;28;20049;-81
2022/11/15 02:25:03;;;;;;;1999.90;999.90;;;12.40;99.90;;;;;;4956337;28;20504;-81
2022/11/15 02:27:57;;;;;;;1999.90;999.90;;;12.40;99.90;;;;;;4963968;28;20077;-82
2022/11/15 02:30:37;;;;;;;1999.90;999.90;;;12.40;99.90;;;;;;4954670;28;20030;-81
2022/11/15 02:33:18;;;;;;;1999.90;999.90;;;12.40;99.90;;;;;;4962279;28;20486;-82
2022/11/15 02:35:59;;;;;;;1999.90;999.90;;;12.50;99.90;;;;;;4972278;28;20062;-82
2022/11/15 02:38:52;;;;;;;1999.90;999.90;;;12.50;99.90;;;;;;4972009;28;20126;-82
2022/11/15 02:41:34;;;;;;;1999.90;999.90;;;12.50;99.90;;;;;;4999214;28;20061;-81
2022/11/15 02:44:05;;;;;;;1999.90;999.90;;;12.50;99.90;;;;;;5013358;28;20048;-81
2022/11/15 02:49:31;;;;;;;1999.90;999.90;;;12.50;99.90;;;;;;5013169;28;20096;-81
2022/11/15 02:51:56;;;;;;;1999.90;999.90;;;12.50;99.90;;;;;;5013400;28;20408;-81
2022/11/15 02:54:29;;;;;;;1999.90;999.90;;;12.50;99.90;;;;;;5012975;28;20125;-82
2022/11/15 02:56:59;;;;;;;1999.90;999.90;;;12.60;99.90;;;;;;5013682;28;20018;-82
2022/11/15 03:00:03;;;;;;;1999.90;999.90;;;12.50;99.90;;;;;;5013155;28;20034;-82
2022/11/15 03:03:05;;;;;;;1999.90;999.90;;;12.50;99.90;;;;;;5027189;28;20036;-81
2022/11/15 03:06:01;;;;;;;1999.90;999.90;;;12.60;99.90;;;;;;5013244;28;20461;-82
2022/11/15 03:08:49;;;;;;;1999.90;999.90;;;12.50;99.90;;;;;;5012012;28;20497;-81
2022/11/15 03:11:20;;;;;;;1999.90;999.90;;;12.50;99.90;;;;;;5013174;28;20505;-82
2022/11/15 03:14:30;;;;;;;1999.90;999.90;;;12.60;99.90;;;;;;5012786;28;20374;-82
2022/11/15 03:17:23;;;;;;;1999.90;999.90;;;12.50;99.90;;;;;;5020113;28;20481;-81
2022/11/15 03:19:53;;;;;;;1999.90;999.90;;;12.50;99.90;;;;;;5012990;28;20022;-81
2022/11/15 03:22:22;;;;;;;1999.90;999.90;;;12.50;99.90;;;;;;5012596;28;20416;-81
2022/11/15 03:24:53;;;;;;;1999.90;999.90;;;12.50;99.90;;;;;;5012958;28;20026;-81
2022/11/15 03:27:23;;;;;;;1999.90;999.90;;;12.50;99.90;;;;;;5021556;28;20491;-81
2022/11/15 03:29:58;;;;;;;1999.90;999.90;;;12.50;99.90;;;;;;5012626;28;20536;-82
2022/11/15 03:32:27;;;;;;;1999.90;999.90;;;12.50;99.90;;;;;;4995385;28;20109;-82
2022/11/15 03:35:01;;;;;;;1999.90;999.90;;;12.50;99.90;;;;;;5012876;28;20022;-81
2022/11/15 03:37:57;;;;;;;1999.90;999.90;;;12.50;99.90;;;;;;5012171;28;20107;-81
2022/11/15 03:40:33;;;;;;;1999.90;999.90;;;12.50;99.90;;;;;;4994986;28;20508;-81
2022/11/15 03:43:37;;;;;;;1999.90;999.90;;;12.50;99.90;;;;;;5012692;28;20461;-82
2022/11/15 03:46:23;;;;;;;1999.90;999.90;;;12.50;99.90;;;;;;4989794;28;20041;-81
2022/11/15 03:49:17;;;;;;;1999.90;999.90;;;12.50;99.90;;;;;;4994822;28;20412;-81
2022/11/15 03:51:42;;;;;;;1999.90;999.90;;;12.40;99.90;;;;;;5010308;28;20064;-81
2022/11/15 03:54:08;;;;;;;1999.90;999.90;;;12.40;99.90;;;;;;5012023;28;20508;-80
2022/11/15 03:56:34;;;;;;;1999.90;999.90;;;12.50;99.90;;;;;;5015546;28;20024;-80
2022/11/15 03:58:59;;;;;;;1999.90;999.90;;;12.40;99.90;;;;;;5016424;28;20101;-81
2022/11/15 04:01:25;;;;;;;1999.90;999.90;;;12.50;99.90;;;;;;5023532;28;20100;-81
2022/11/15 04:03:50;;;;;;;1999.90;999.90;;;12.50;99.90;;;;;;5010785;28;20041;-81
2022/11/15 04:06:16;;;;;;;1999.90;999.90;;;12.50;99.90;;;;;;5012325;28;20034;-81
2022/11/15 04:08:42;;;;;;;1999.90;999.90;;;12.50;99.90;;;;;;5012055;28;20037;-80
2022/11/15 04:11:07;;;;;;;1999.90;999.90;;;12.50;99.90;;;;;;5012498;28;20050;-80
2022/11/15 04:13:33;;;;;;;1999.90;999.90;;;12.50;99.90;;;;;;5011963;28;20030;-81
2022/11/15 04:15:58;;;;;;;1999.90;999.90;;;12.40;99.90;;;;;;5011730;28;20033;-81
2022/11/15 04:18:24;;;;;;;1999.90;999.90;;;12.40;99.90;;;;;;5023392;28;20030;-81
2022/11/15 04:26:20;;;;;;;1999.90;999.90;;;12.40;99.90;;;;;;5016553;28;20036;-81
2022/11/15 04:31:31;;;;;;;1999.90;999.90;;;12.30;99.90;;;;;;5015967;28;20555;-81
2022/11/15 04:33:56;;;;;;;1999.90;999.90;;;12.30;99.90;;;;;;5015810;28;20038;-81
2022/11/15 04:39:07;;;;;;;1999.90;999.90;;;12.20;99.90;;;;;;5015998;28;20036;-81
2022/11/15 04:41:32;;;;;;;1999.90;999.90;;;12.10;99.90;;;;;;5015858;28;20495;-82
2022/11/15 04:43:58;;;;;;;1999.90;999.90;;;12.10;99.90;;;;;;5015289;28;20386;-81
2022/11/15 04:46:24;;;;;;;1999.90;999.90;;;12.10;99.90;;;;;;5015745;28;20033;-82
2022/11/15 04:48:51;;;;;;;1999.90;999.90;;;12.10;99.90;;;;;;5015563;28;20037;-81
2022/11/15 04:51:17;;;;;;;1999.90;999.90;;;12.10;99.90;;;;;;5015870;28;20038;-81
2022/11/15 04:53:43;;;;;;;1999.90;999.90;;;12.10;99.90;;;;;;5015182;28;20014;-82
2022/11/15 04:56:09;;;;;;;1999.90;999.90;;;12.10;99.90;;;;;;5015539;28;20504;-81
2022/11/15 04:58:35;;;;;;;1999.90;999.90;;;12.10;99.90;;;;;;5015526;28;20105;-81
2022/11/15 05:01:11;;;;;;;1999.90;999.90;;;12.20;99.90;;;;;;5020700;28;20036;-82
2022/11/15 05:06:22;;;;;;;1999.90;999.90;;;12.10;99.90;;;;;;5030937;28;20052;-82
2022/11/15 05:08:48;;;;;;;1999.90;999.90;;;12.10;99.90;;;;;;5010303;28;20485;-82
2022/11/15 05:11:13;;;;;;;1999.90;999.90;;;12.20;99.90;;;;;;4995734;28;20026;-82
2022/11/15 05:13:39;;;;;;;1999.90;999.90;;;12.20;99.90;;;;;;4999474;28;20092;-81
2022/11/15 05:16:05;;;;;;;1999.90;999.90;;;12.20;99.90;;;;;;5014888;28;20041;-81
2022/11/15 05:18:30;;;;;;;1999.90;999.90;;;12.20;99.90;;;;;;5013418;28;20088;-84
2022/11/15 05:21:02;;;;;;;1999.90;999.90;;;12.20;99.90;;;;;;5015051;28;20413;-84
2022/11/15 05:23:28;;;;;;;1999.90;999.90;;;12.20;99.90;;;;;;5014684;28;20028;-84
2022/11/15 05:25:53;;;;;;;1999.90;999.90;;;12.20;99.90;;;;;;5014655;28;20034;-82
2022/11/15 05:28:19;;;;;;;1999.90;999.90;;;12.20;99.90;;;;;;5027536;28;20112;-81
2022/11/15 05:30:44;;;;;;;1999.90;999.90;;;12.20;99.90;;;;;;5014265;28;20042;-81
2022/11/15 05:33:10;;;;;;;1999.90;999.90;;;12.20;99.90;;;;;;4999787;28;20493;-82
2022/11/15 05:35:45;;;;;;;1999.90;999.90;;;12.20;99.90;;;;;;5014810;28;20026;-82
2022/11/15 05:38:10;;;;;;;1999.90;999.90;;;12.20;99.90;;;;;;5014545;28;20022;-81
2022/11/15 05:40:36;;;;;;;1999.90;999.90;;;12.20;99.90;;;;;;5015004;28;20370;-81
2022/11/15 05:43:03;;;;;;;1999.90;999.90;;;12.20;99.90;;;;;;5013264;28;20034;-81
2022/11/15 05:45:29;;;;;;;1999.90;999.90;;;12.20;99.90;;;;;;5014627;28;20076;-81
2022/11/15 05:47:57;;;;;;;1999.90;999.90;;;12.30;99.90;;;;;;5014459;28;20076;-81
2022/11/15 05:50:23;;;;;;;1999.90;999.90;;;12.30;99.90;;;;;;5014422;28;20022;-81
2022/11/15 05:52:50;;;;;;;1999.90;999.90;;;12.30;99.90;;;;;;5006364;28;20444;-82
2022/11/15 05:55:15;;;;;;;1999.90;999.90;;;12.30;99.90;;;;;;5012885;28;20505;-82
2022/11/15 05:57:41;;;;;;;1999.90;999.90;;;12.30;99.90;;;;;;4999264;28;20033;-81
2022/11/15 06:00:09;;;;;;;1999.90;999.90;;;12.30;99.90;;;;;;4988107;28;20516;-81
2022/11/15 06:02:35;;;;;;;1999.90;999.90;;;12.30;99.90;;;;;;5012256;28;20021;-79
2022/11/15 06:05:01;;;;;;;1999.90;999.90;;;12.30;99.90;;;;;;5001848;28;20037;-83
2022/11/15 06:07:26;;;;;;;1999.90;999.90;;;12.30;99.90;;;;;;5005807;28;20032;-83
2022/11/15 06:09:52;;;;;;;1999.90;999.90;;;12.30;99.90;;;;;;5011715;28;20033;-82
2022/11/15 06:12:17;;;;;;;1999.90;999.90;;;12.30;99.90;;;;;;5007214;28;20101;-82
2022/11/15 06:14:43;;;;;;;1999.90;999.90;;;12.20;99.90;;;;;;5012547;28;20093;-83
2022/11/15 06:17:09;;;;;;;1999.90;999.90;;;12.20;99.90;;;;;;5013800;28;20022;-85
2022/11/15 06:19:34;;;;;;;1999.90;999.90;;;12.20;99.90;;;;;;5004937;28;20056;-83
2022/11/15 06:22:00;;;;;;;1999.90;999.90;;;12.20;99.90;;;;;;5013776;28;20514;-83
2022/11/15 06:24:26;;;;;;;1999.90;999.90;;;12.20;99.90;;;;;;5007295;28;20120;-84
2022/11/15 06:26:51;;;;;;;1999.90;999.90;;;12.10;99.90;;;;;;5014181;28;20030;-84
2022/11/15 06:29:17;;;;;;;1999.90;999.90;;;12.10;99.90;;;;;;5020807;28;20041;-82
2022/11/15 06:31:42;;;;;;;1999.90;999.90;;;12.10;99.90;;;;;;4999289;28;20022;-83
2022/11/15 06:34:08;;;;;;;1999.90;999.90;;;12.10;99.90;;;;;;5005792;28;20030;-83
2022/11/15 06:36:35;;;;;;;1999.90;999.90;;;12.10;99.90;;;;;;4996262;28;20033;-82
2022/11/15 06:39:02;;;;;;;1999.90;999.90;;;12.00;99.90;;;;;;5004591;28;20037;-82
2022/11/15 06:41:27;;;;;;;1999.90;999.90;;;12.00;99.90;;;;;;5005131;28;20036;-82
2022/11/15 06:43:53;;;;;;;1999.90;999.90;;;12.00;99.90;;;;;;4999839;28;20541;-83
2022/11/15 06:46:19;;;;;;;1999.90;999.90;;;12.00;99.90;;;;;;4998855;28;20025;-83
2022/11/15 06:48:44;;;;;;;1999.90;999.90;;;12.00;99.90;;;;;;5012245;28;20034;-82
2022/11/15 06:51:10;;;;;;;1999.90;999.90;;;12.00;99.90;;;;;;5013016;28;20397;-83
2022/11/15 06:53:36;;;;;;;1999.90;999.90;;;12.00;99.90;;;;;;5012187;28;20481;-83
2022/11/15 06:56:04;;;;;;;1999.90;999.90;;;12.00;99.90;;;;;;5012652;28;20030;-83
2022/11/15 06:58:30;;;;;;;1999.90;999.90;;;12.00;99.90;;;;;;5004634;28;20026;-85
2022/11/15 07:01:06;;;;;;;1999.90;999.90;;;12.00;99.90;;;;;;4989273;28;20433;-84
2022/11/15 07:03:40;;;;;;;1999.90;999.90;;;12.00;99.90;;;;;;5083277;27;20495;-71
2022/11/15 07:06:08;;;;;;;1999.90;999.90;;;12.00;99.90;;;;;;5081044;28;20042;-76
2022/11/15 07:08:34;;;;;;;1999.90;999.90;;;12.00;99.90;;;;;;5081058;28;20815;-74
2022/11/15 07:11:02;;;;;;;1999.90;999.90;;;12.00;99.90;;;;;;5076694;28;20082;-74
2022/11/15 07:13:32;;;;;;;1999.90;999.90;;;12.00;99.90;;;;;;5086872;28;20066;-76
2022/11/15 07:16:01;;;;;;;1999.90;999.90;;;12.00;99.90;;;;;;5085957;28;20028;-76
2022/11/15 07:18:27;;;;;;;1999.90;999.90;;;12.00;99.90;;;;;;5087633;28;20387;-76
2022/11/15 07:20:53;;;;;;;1999.90;999.90;;;12.00;99.90;;;;;;5090175;28;20038;-72
2022/11/15 07:23:18;;;;;;;1999.90;999.90;;;12.00;99.90;;;;;;5086999;28;20071;-72
2022/11/15 07:25:44;;;;;;;1999.90;999.90;;;12.00;99.90;;;;;;5087354;28;20111;-76
2022/11/15 07:28:10;;;;;;;1999.90;999.90;;;12.00;99.90;;;;;;5087661;28;20375;-72
2022/11/15 07:30:35;;;;;;;1999.90;999.90;;;12.00;99.90;;;;;;5078767;28;20086;-76
2022/11/15 07:33:01;;;;;;;1999.90;999.90;;;12.00;99.90;;;;;;5086837;28;20032;-76
2022/11/15 07:35:27;;;;;;;1999.90;999.90;;;12.00;99.90;;;;;;5090423;28;20032;-72
2022/11/15 07:37:58;;;;;;;1999.90;999.90;;;12.00;99.90;;;;;;5092651;28;20035;-71
2022/11/15 07:40:25;;;;;;;1999.90;999.90;;;12.00;99.90;;;;;;5098657;28;20024;-71
2022/11/15 07:42:53;;;;;;;1999.90;999.90;;;12.00;99.90;;;;;;5107791;28;20035;-76
2022/11/15 07:45:20;;;;;;;1999.90;999.90;;;12.10;99.90;;;;;;5090013;28;20020;-77
2022/11/15 07:47:47;;;;;;;1999.90;999.90;;;12.10;99.90;;;;;;5086672;28;20020;-73
2022/11/15 07:50:12;;;;;;;1999.90;999.90;;;12.10;99.90;;;;;;5086821;28;20024;-72
2022/11/15 07:52:38;;;;;;;1999.90;999.90;;;12.10;99.90;;;;;;5087049;28;20081;-78
2022/11/15 07:55:04;;;;;;;1999.90;999.90;;;12.10;99.90;;;;;;5081089;28;20029;-71
2022/11/15 07:57:30;;;;;;;1999.90;999.90;;;12.10;99.90;;;;;;5076649;28;20039;-78
2022/11/15 07:59:55;;;;;;;1999.90;999.90;;;12.10;99.90;;;;;;5079514;28;20028;-72
2022/11/15 08:02:21;;;;;;;1999.90;999.90;;;12.10;99.90;;;;;;5086299;28;20384;-72
2022/11/15 08:04:47;;;;;;;1999.90;999.90;;;12.20;99.90;;;;;;5082204;28;20040;-74
2022/11/15 08:07:13;;;;;;;1999.90;999.90;;;12.10;99.90;;;;;;5084045;28;20078;-74
2022/11/15 08:09:38;;;;;;;1999.90;999.90;;;12.20;99.90;;;;;;5081335;28;20032;-76
2022/11/15 08:12:05;;;;;;;1999.90;999.90;;;12.20;99.90;;;;;;5083318;28;20028;-74
2022/11/15 08:14:31;;;;;;;1999.90;999.90;;;12.20;99.90;;;;;;5068935;28;20033;-73
2022/11/15 08:16:56;;;;;;;1999.90;999.90;;;12.20;99.90;;;;;;5069990;28;20028;-77
2022/11/15 08:19:22;;;;;;;1999.90;999.90;;;12.20;99.90;;;;;;5068669;28;20024;-76
2022/11/15 08:21:48;;;;;;;1999.90;999.90;;;12.20;99.90;;;;;;5072359;28;20127;-75
2022/11/15 08:24:14;;;;;;;1999.90;999.90;;;12.10;99.90;;;;;;5071160;28;20027;-76
2022/11/15 08:26:40;;;;;;;1999.90;999.90;;;12.20;99.90;;;;;;5072860;28;20131;-74
2022/11/15 08:29:08;;;;;;;1999.90;999.90;;;12.20;99.90;;;;;;5072312;28;20048;-74
2022/11/15 08:31:34;;;;;;;1999.90;999.90;;;12.20;99.90;;;;;;5069445;28;20024;-77
2022/11/15 08:34:00;;;;;;;1999.90;999.90;;;12.20;99.90;;;;;;5079613;28;20444;-77
2022/11/15 08:36:26;;;;;;;1999.90;999.90;;;12.20;99.90;;;;;;5069033;28;20036;-74
2022/11/15 08:38:51;;;;;;;1999.90;999.90;;;12.20;99.90;;;;;;5070793;28;20029;-78
2022/11/15 08:41:33;;;;;;;1999.90;999.90;;;12.20;99.90;;;;;;5078197;28;20024;-74
2022/11/15 08:43:59;;;;;;;1999.90;999.90;;;12.30;99.90;;;;;;5076610;28;20356;-74
2022/11/15 08:46:25;;;;;;;1999.90;999.90;;;12.30;99.90;;;;;;5075064;28;20036;-76
2022/11/15 08:48:50;;;;;;;1999.90;999.90;;;12.30;99.90;;;;;;5071747;28;20036;-73
2022/11/15 08:51:16;;;;;;;1999.90;999.90;;;12.30;99.90;;;;;;5077506;28;20079;-71
2022/11/15 08:53:42;;;;;;;1999.90;999.90;;;12.30;99.90;;;;;;5071857;28;20396;-70
2022/11/15 08:56:12;;;;;;;1999.90;999.90;;;12.30;99.90;;;;;;5072314;28;20072;-76
2022/11/15 08:58:38;;;;;;;1999.90;999.90;;;12.30;99.90;;;;;;5069643;28;20435;-71
2022/11/15 09:01:04;;;;;;;1999.90;999.90;;;12.30;99.90;;;;;;5071630;28;20079;-78
2022/11/15 09:03:30;;;;;;;1999.90;999.90;;;12.40;99.90;;;;;;5064825;28;20099;-76
2022/11/15 09:05:57;;;;;;;1999.90;999.90;;;12.40;99.90;;;;;;5066159;28;20499;-75
2022/11/15 09:08:24;;;;;;;1999.90;999.90;;;12.40;99.90;;;;;;5071565;28;20423;-75
2022/11/15 09:10:50;;;;;;;1999.90;999.90;;;12.40;99.90;;;;;;5067934;28;20109;-74
2022/11/15 09:13:16;;;;;;;1999.90;999.90;;;12.40;99.90;;;;;;5070804;28;20021;-80
2022/11/15 09:15:41;;;;;;;1999.90;999.90;;;12.40;99.90;;;;;;5058864;28;20029;-78
2022/11/15 09:18:07;;;;;;;1999.90;999.90;;;12.40;99.90;;;;;;5063618;28;20462;-73
2022/11/15 09:20:33;;;;;;;1999.90;999.90;;;12.40;99.90;;;;;;5057178;28;20538;-73
2022/11/15 09:23:02;;;;;;;1999.90;999.90;;;12.40;99.90;;;;;;5069972;28;20074;-84
2022/11/15 09:25:28;;;;;;;1999.90;999.90;;;12.50;99.90;;;;;;5065186;28;20036;-81
2022/11/15 09:27:55;;;;;;;1999.90;999.90;;;12.50;99.90;;;;;;5054316;28;20086;-72
2022/11/15 09:30:21;;;;;;;1999.90;999.90;;;12.50;99.90;;;;;;5068437;28;20554;-74
2022/11/15 09:32:47;;;;;;;1999.90;999.90;;;12.50;99.90;;;;;;5056537;28;20033;-73
2022/11/15 09:35:13;;;;;;;1999.90;999.90;;;12.50;99.90;;;;;;5062923;28;20059;-75
2022/11/15 09:37:38;;;;;;;1999.90;999.90;;;12.50;99.90;;;;;;5056983;28;20059;-78
2022/11/15 09:40:04;;;;;;;1999.90;999.90;;;12.60;99.90;;;;;;5066437;28;20040;-73
2022/11/15 09:42:33;;;;;;;1999.90;999.90;;;12.60;99.90;;;;;;5066029;28;20028;-82
2022/11/15 09:45:14;;;;;;;1999.90;999.90;;;12.60;99.90;;;;;;5070779;28;20036;-71
2022/11/15 09:48:07;;;;;;;1999.90;999.90;;;12.70;99.90;;;;;;5061160;28;20484;-72
2022/11/15 09:50:43;;;;;;;1999.90;999.90;;;12.70;99.90;;;;;;5077044;28;20073;-78
2022/11/15 09:53:15;;;;;;;1999.90;999.90;;;12.80;99.90;;;;;;5086772;28;20025;-79
2022/11/15 09:56:03;;;;;;;1999.90;999.90;;;12.80;99.90;;;;;;5070664;28;20082;-78
2022/11/15 09:58:38;;;;;;;1999.90;999.90;;;12.80;99.90;;;;;;5059898;28;20035;-72
2022/11/15 10:01:11;;;;;;;1999.90;999.90;;;12.80;99.90;;;;;;5066453;28;20062;-73
2022/11/15 10:03:41;;;;;;;1999.90;999.90;;;12.90;99.90;;;;;;5073982;28;20135;-73
2022/11/15 10:06:14;;;;;;;1999.90;999.90;;;12.90;99.90;;;;;;5081151;28;20494;-78
2022/11/15 10:09:01;;;;;;;1999.90;999.90;;;12.90;99.90;;;;;;5066410;28;20044;-73
2022/11/15 10:11:31;;;;;;;1999.90;999.90;;;13.00;99.90;;;;;;5067765;28;20082;-73
2022/11/15 10:14:01;;;;;;;1999.90;999.90;;;13.00;99.90;;;;;;5069704;28;20112;-73
2022/11/15 10:16:30;;;;;;;1999.90;999.90;;;13.10;99.90;;;;;;5061306;28;20599;-78
2022/11/15 10:19:02;;;;;;;1999.90;999.90;;;13.10;99.90;;;;;;5080028;28;20069;-78
2022/11/15 10:21:56;;;;;;;1999.90;999.90;;;13.20;99.90;;;;;;5078487;28;20476;-73
2022/11/15 10:24:28;;;;;;;1999.90;999.90;;;13.20;99.90;;;;;;5065256;28;20025;-73
2022/11/15 10:26:55;;;;;;;1999.90;999.90;;;13.20;99.90;;;;;;5065409;28;20032;-73
2022/11/15 10:29:21;;;;;;;1999.90;999.90;;;13.30;99.90;;;;;;5069993;28;20021;-73
2022/11/15 10:31:47;;;;;;;1999.90;999.90;;;13.30;99.90;;;;;;5083197;28;20042;-78
2022/11/15 10:34:18;;;;;;;1999.90;999.90;;;13.40;99.90;;;;;;5077546;28;20032;-73
2022/11/15 10:36:55;;;;;;;1999.90;999.90;;;13.40;99.90;;;;;;5069071;28;20039;-73
2022/11/15 10:39:20;;;;;;;1999.90;999.90;;;13.50;99.90;;;;;;5068656;28;20028;-72
2022/11/15 10:41:46;;;;;;;1999.90;999.90;;;13.50;99.90;;;;;;5070191;28;20033;-78
2022/11/15 10:44:28;;;;;;;1999.90;999.90;;;13.60;99.90;;;;;;5076538;28;20024;-77
2022/11/15 10:46:57;;;;;;;1999.90;999.90;;;13.70;99.90;;;;;;5076251;28;20028;-78
2022/11/15 10:49:28;;;;;;;1999.90;999.90;;;13.70;99.90;;;;;;5067865;28;20064;-73
2022/11/15 10:52:01;;;;;;;1999.90;999.90;;;13.80;99.90;;;;;;5064205;28;20029;-73
2022/11/15 10:54:47;;;;;;;1999.90;999.90;;;13.90;99.90;;;;;;5060863;28;20055;-76
2022/11/15 10:57:35;;;;;;;1999.90;999.90;;;13.90;99.90;;;;;;5070335;28;20047;-78
2022/11/15 11:00:06;;;;;;;1999.90;999.90;;;13.90;99.90;;;;;;5061492;28;20020;-78
2022/11/15 11:02:33;;;;;;;1999.90;999.90;;;13.90;99.90;;;;;;5068615;28;20139;-73
2022/11/15 11:05:00;;;;;;;1999.90;999.90;;;13.90;99.90;;;;;;5063076;28;20487;-74
2022/11/15 11:07:35;;;;;;;1999.90;999.90;;;13.90;99.90;;;;;;5070872;28;20119;-78
2022/11/15 11:10:16;;;;;;;1999.90;999.90;;;13.90;99.90;;;;;;5070124;28;20437;-74
2022/11/15 11:12:41;;;;;;;1999.90;999.90;;;14.00;99.90;;;;;;5061491;28;20028;-74
2022/11/15 11:15:13;;;;;;;1999.90;999.90;;;14.00;99.90;;;;;;5067258;28;20033;-74
2022/11/15 11:18:06;;;;;;;1999.90;999.90;;;14.00;99.90;;;;;;5067869;28;20082;-74
2022/11/15 11:20:46;;;;;;;1999.90;999.90;;;14.10;99.90;;;;;;5033280;28;20040;-74
2022/11/15 11:23:46;;;;;;;1999.90;999.90;;;14.10;99.90;;;;;;5065023;28;20293;-79
2022/11/15 11:26:17;;;;;;;1999.90;999.90;;;14.20;99.90;;;;;;5059070;28;20020;-79
2022/11/15 11:29:16;;;;;;;1999.90;999.90;;;14.30;99.90;;;;;;5061182;28;20537;-74
2022/11/15 11:31:47;;;;;;;1999.90;999.90;;;14.40;99.90;;;;;;5068853;28;20025;-74
2022/11/15 11:34:16;;;;;;;1999.90;999.90;;;14.50;99.90;;;;;;5067599;28;20165;-78
2022/11/15 11:37:03;;;;;;;1999.90;999.90;;;14.50;99.90;;;;;;5068954;28;20391;-80
2022/11/15 11:40:01;;;;;;;1999.90;999.90;;;14.50;99.90;;;;;;5064657;28;20036;-78
2022/11/15 11:42:44;;;;;;;1999.90;999.90;;;14.50;99.90;;;;;;5067415;28;20074;-75
2022/11/15 11:45:09;;;;;;;1999.90;999.90;;;14.60;99.90;;;;;;5064306;28;20035;-75
2022/11/15 11:48:07;;;;;;;1999.90;999.90;;;14.60;99.90;;;;;;5056430;28;20024;-75
2022/11/15 11:50:47;;;;;;;1999.90;999.90;;;14.60;99.90;;;;;;5061824;28;20147;-75
2022/11/15 11:53:38;;;;;;;1999.90;999.90;;;14.70;99.90;;;;;;5068057;28;20028;-76
2022/11/15 11:56:28;;;;;;;1999.90;999.90;;;14.90;99.90;;;;;;5067141;28;20028;-76
2022/11/15 11:59:00;;;;;;;1999.90;999.90;;;15.10;99.90;;;;;;5065700;28;20457;-80
2022/11/15 12:01:37;;;;;;;1999.90;999.90;;;15.40;99.90;;;;;;5069485;28;20032;-79
2022/11/15 12:04:24;;;;;;;1999.90;999.90;;;15.50;99.90;;;;;;5064951;28;20032;-75
2022/11/15 12:06:53;;;;;;;1999.90;999.90;;;15.90;99.90;;;;;;5062574;28;20071;-75
2022/11/15 12:09:30;;;;;;;1999.90;999.90;;;15.90;99.90;;;;;;5063733;28;20074;-78
2022/11/15 12:12:23;;;;;;;1999.90;999.90;;;15.90;99.90;;;;;;5066679;28;20475;-82
2022/11/15 12:15:00;;;;;;;1999.90;999.90;;;15.80;99.90;;;;;;5067284;28;20017;-80
2022/11/15 12:17:32;;;;;;;1999.90;999.90;;;15.80;99.90;;;;;;5067691;28;20028;-76
2022/11/15 12:20:00;;;;;;;1999.90;999.90;;;15.90;99.90;;;;;;5066354;28;20094;-77
2022/11/15 12:22:47;;;;;;;1999.90;999.90;;;16.00;99.90;;;;;;5066862;28;20071;-75
2022/11/15 12:25:21;;;;;;;1999.90;999.90;;;15.80;99.90;;;;;;5068913;28;20434;-76
2022/11/15 12:27:58;;;;;;;1999.90;999.90;;;15.60;99.90;;;;;;5068732;28;20035;-79
2022/11/15 12:30:39;;;;;;;1999.90;999.90;;;15.50;99.90;;;;;;5066128;28;20515;-75
2022/11/15 12:33:05;;;;;;;1999.90;999.90;;;15.50;99.90;;;;;;5068876;28;20059;-80